AirNav   Air Wisconsin Up To $57,000 Bonus
 
 1127 users online  

3CA7 Metz Airport
Greenfield, California, USA

GOING TO GREENFIELD?


FAA INFORMATION EFFECTIVE 01 DECEMBER 2022

Location

FAA Identifier: 3CA7
Lat/Long: 36-19-41.8770N 121-11-11.7180W
36-19.697950N 121-11.195300W
36.3282992,-121.1865883
(estimated)
Elevation: 240 ft. / 73 m (estimated)
Variation: 15E (1985)
From city: 3 miles E of GREENFIELD, CA
Time zone: UTC -8 (UTC -7 during Daylight Saving Time)
Zip code: 93930

Airport Operations

Airport use: Private use. Permission required prior to landing
Activation date: 10/1977
Control tower: no
ARTCC: OAKLAND CENTER
FSS: OAKLAND FLIGHT SERVICE STATION
Attendance: CONTINUOUS
Wind indicator: yes
Segmented circle: yes
Lights: FOR LIRL RY 15/33 - 122.8.

Airport Communications

UNICOM: 122.8
WX AWOS-AV at 09CA (8 nm S): 120.800 (831-386-7456)

Nearby radio navigation aids

VOR radial/distance  VOR name  Freq  Var
BSRr052/23.7BIG SUR VORTAC114.0016E
SNSr118/28.4SALINAS VORTAC117.3017E
PXNr204/30.4PANOCHE VORTAC112.6016E

 
NDB name  Hdg/Dist  Freq  Var  ID
HUNTER LIGGETT345/22.020915EHGT .... --. -

Airport Services

Runway Information

Runway 15/33

Dimensions: 3400 x 50 ft. / 1036 x 15 m
Surface: gravel
Runway edge lights: low intensity
RUNWAY 15  RUNWAY 33
Traffic pattern: rightleft
Obstructions: hill, 2400 ft. from runwayhill, 2640 ft. from runway

Airport Ownership and Management from official FAA records

Ownership: Privately-owned
OWNER: DONALD D. CHAPIN JR. AND BARBARA A. CHAPIN AS CO-TRUSTEES OF THE CHAPIN LIVING TRUST DATED APRIL 27, 1999.
Owner: DON CHAPIN JR.
480 CRAZY HORSE RD
SALINAS, CA 93907
Phone 831-449-4273
Manager: DON CHAPIN JR.
480 CRAZY HORSE RD
SALINAS, CA 93907
Phone 831-449-4273

Airport Operational Statistics

Aircraft based on the field: 1
Single engine airplanes: 1
    

Additional Remarks

INTENSIVE AEROBATIC ACTIVITY INVOF AIRPORT.
FOR CD CTC OAKLAND ARTCC AT 510-745-3380.

Instrument Procedures

There are no published instrument procedures at 3CA7.

Some nearby airports with instrument procedures:

KHGT - Tusi Army Heliport (Hunter Liggett) (20 nm S)
KSNS - Salinas Municipal Airport (29 nm NW)
KOAR - Marina Municipal Airport (35 nm NW)
KMRY - Monterey Regional Airport (35 nm NW)
KCVH - Hollister Municipal Airport (36 nm N)
 
Loc | Ops | Rwys | IFR | FBO | Links
Com | Nav | Svcs | Stats | Notes
Area around 3CA7 (Metz Airport)
 
Road maps at: MapQuest Bing Google
 
Aerial photo
No photo
 
Sectional chart

 
Airport distance calculator
Flying to Metz Airport? Find the distance to fly.

From to 3CA7

Sunrise and sunset
Times for 06-Dec-2022
 Local
(UTC-8)
 Zulu
(UTC)
Morning civil twilight06:3514:35
Sunrise07:0315:03
Sunset16:4900:49
Evening civil twilight17:1701:17

Current date and time
Zulu (UTC)  07-Dec-2022 02:51:12
Local (UTC-8)  06-Dec-2022 18:51:12
 
METAR
KSNS 
28nm NW 
070153Z 11004KT 10SM -RA BKN047 BKN055 11/07 A3006 RMK AO2 RAB44 SLP189 P0000 T01060067
KOAR 
35nm NW 
134.025 831-384-2967
070235Z AUTO 00000KT 10SM CLR 08/06 A3007 RMK AO2 PWINO
KMRY 
35nm NW 
070154Z 00000KT 10SM FEW045 09/07 A3007 RMK AO2 SLP195 T00940067
KCVH 
36nm N 
070235Z AUTO 00000KT 10SM SCT060 10/07 A3009 RMK A01
TAF
KSNS 
28nm NW 
061759Z 0618/0718 13008KT P6SM VCSH BKN050 TEMPO 0618/0621 -SHRA BKN030 FM062100 VRB03KT P6SM VCSH SCT050 FM062300 29007KT P6SM FEW050 SCT070 FM070200 VRB04KT P6SM FEW040 FM070900 12007KT P6SM FEW030
KMRY 
35nm NW 
061752Z 0618/0718 VRB04KT P6SM VCSH BKN050 TEMPO 0618/0621 -SHRA BKN030 FM062100 24007KT P6SM VCSH SCT040 FM070200 VRB03KT P6SM FEW050 FM070800 12004KT P6SM FEW020
NOTAMs
Click for the latest NOTAMs
NOTAMs are issued by the DoD/FAA and will open in a separate window not controlled by AirNav.

 

 
 

Would you like to see your business listed on this page?

 If your business provides an interesting product or service to pilots, flight crews, aircraft, or users of the Metz Airport, you should consider listing it here.  To start the listing process, click on the button below
 
Add a business
 

Other Pages about Metz Airport

Update a link
 
Copyright © AirNav, LLC. All rights reserved. Privacy Policy  Contact